Time;durP1;ratioP1;P1;durP2;ratioP2;P2;SDS_P1;SDS_P2;PMS_P1;PMS_P2;Temp;Humidity;BMP_temperature;BMP_pressure;BME280_temperature;BME280_humidity;BME280_pressure;Samples;Min_cycle;Max_cycle;Signal;HPM_P1;HPM_P2
2022/02/16 00:00:00;;;;;;;7.55;3.90;;;;;;;-1.69;48.67;100189.38;5071543;28;20028;-59
2022/02/16 00:02:26;;;;;;;12.02;4.30;;;;;;;-1.70;48.58;100188.50;5071832;28;20033;-59
2022/02/16 00:04:51;;;;;;;10.18;4.63;;;;;;;-1.71;48.78;100196.44;5071367;28;20076;-59
2022/02/16 00:07:17;;;;;;;10.32;4.57;;;;;;;-1.82;48.77;100179.16;5071306;28;20115;-59
2022/02/16 00:09:42;;;;;;;9.00;4.55;;;;;;;-1.76;49.00;100200.03;5071783;28;20032;-58
2022/02/16 00:12:08;;;;;;;11.32;4.35;;;;;;;-1.77;49.46;100200.06;5071549;28;20178;-57
2022/02/16 00:14:34;;;;;;;8.63;4.63;;;;;;;-1.81;48.73;100199.28;5071605;28;20397;-58
2022/02/16 00:17:00;;;;;;;8.55;4.45;;;;;;;-1.82;48.93;100194.06;5071567;28;20048;-61
2022/02/16 00:19:26;;;;;;;9.25;4.93;;;;;;;-1.82;49.17;100191.44;5071669;28;20124;-58
2022/02/16 00:21:52;;;;;;;9.98;4.25;;;;;;;-1.80;48.94;100195.75;5070432;28;20135;-60
2022/02/16 00:24:18;;;;;;;10.18;4.43;;;;;;;-1.83;49.59;100185.31;5071336;28;20032;-58
2022/02/16 00:26:43;;;;;;;10.77;4.30;;;;;;;-1.80;49.22;100187.88;5053649;28;20025;-58
2022/02/16 00:29:11;;;;;;;9.25;4.57;;;;;;;-2.09;49.22;100133.47;5071755;28;20100;-58
2022/02/16 00:31:37;;;;;;;9.90;4.70;;;;;;;-1.85;49.14;100171.34;5071363;28;20437;-57
2022/02/16 00:34:03;;;;;;;9.40;4.57;;;;;;;-1.84;49.37;100170.47;5070989;28;20025;-57
2022/02/16 00:36:28;;;;;;;8.55;4.35;;;;;;;-1.82;49.48;100162.56;5071419;28;20032;-60
2022/02/16 00:38:54;;;;;;;11.68;5.38;;;;;;;-1.76;49.51;100172.91;5071563;28;20028;-56
2022/02/16 00:41:19;;;;;;;9.77;5.03;;;;;;;-1.75;49.27;100159.75;5070857;28;20024;-50
2022/02/16 00:43:45;;;;;;;11.23;5.03;;;;;;;-1.73;49.26;100160.59;5070829;28;20077;-55
2022/02/16 00:46:10;;;;;;;10.32;4.88;;;;;;;-1.75;49.01;100158.88;5071733;28;20342;-58
2022/02/16 00:48:36;;;;;;;13.85;5.13;;;;;;;-1.86;49.16;100145.16;5071576;28;20031;-55
2022/02/16 00:51:01;;;;;;;13.20;4.53;;;;;;;-1.76;49.18;100158.03;5070778;28;20063;-55
2022/02/16 00:53:27;;;;;;;9.27;5.03;;;;;;;-2.01;49.16;100115.75;5070893;28;20059;-53
2022/02/16 00:55:52;;;;;;;10.95;5.25;;;;;;;-1.80;48.85;100145.00;5071333;28;20115;-53
2022/02/16 00:58:18;;;;;;;14.48;4.32;;;;;;;-1.84;48.89;100132.88;5071447;28;20414;-56
2022/02/16 01:00:43;;;;;;;12.55;5.15;;;;;;;-1.79;49.37;100133.63;5070849;28;20103;-57
2022/02/16 01:03:10;;;;;;;11.00;4.97;;;;;;;-1.80;49.70;100139.75;5071194;28;20408;-56
2022/02/16 01:05:35;;;;;;;11.80;5.22;;;;;;;-1.97;49.47;100117.41;5071369;28;20028;-57
2022/02/16 01:08:01;;;;;;;12.20;5.30;;;;;;;-1.82;49.82;100137.16;5071363;28;20074;-57
2022/02/16 01:10:26;;;;;;;14.55;5.28;;;;;;;-1.82;49.33;100124.03;5070958;28;20025;-57
2022/02/16 01:12:52;;;;;;;13.63;4.65;;;;;;;-2.08;49.42;100082.72;5070553;28;20032;-54
2022/02/16 01:15:17;;;;;;;11.68;5.10;;;;;;;-1.84;49.80;100120.59;5071112;28;20071;-57
2022/02/16 01:17:43;;;;;;;12.90;5.47;;;;;;;-1.99;49.80;100090.34;5070711;28;20470;-57
2022/02/16 01:20:09;;;;;;;10.75;4.68;;;;;;;-1.86;49.74;100118.91;5070720;28;20033;-58
2022/02/16 01:22:35;;;;;;;9.90;4.72;;;;;;;-1.87;49.92;100115.41;5070393;28;20466;-51
2022/02/16 01:25:00;;;;;;;11.35;5.38;;;;;;;-1.87;49.89;100107.53;5070620;28;20031;-51
2022/02/16 01:27:26;;;;;;;11.57;5.70;;;;;;;-1.84;50.05;100117.97;5070821;28;20350;-54
2022/02/16 01:29:51;;;;;;;12.10;5.28;;;;;;;-2.08;49.71;100073.06;5070535;28;20031;-54
2022/02/16 01:32:17;;;;;;;10.98;4.93;;;;;;;-1.88;50.20;100105.81;5071237;28;20183;-55
2022/02/16 01:34:43;;;;;;;12.75;5.00;;;;;;;-1.86;49.75;100113.66;5074705;28;20024;-57
2022/02/16 01:37:09;;;;;;;10.38;5.03;;;;;;;-1.85;49.56;100104.91;5074261;28;20419;-57
2022/02/16 01:39:34;;;;;;;15.32;5.97;;;;;;;-1.87;49.88;100097.06;5074114;28;20462;-55
2022/02/16 01:42:00;;;;;;;9.95;4.60;;;;;;;-1.92;49.70;100089.31;5074132;28;20445;-57
2022/02/16 01:44:26;;;;;;;11.23;5.32;;;;;;;-1.84;49.66;100101.38;5073909;28;20086;-60
2022/02/16 01:47:00;;;;;;;11.52;5.30;;;;;;;-1.82;49.65;100094.31;5073916;28;20032;-58
2022/02/16 01:49:26;;;;;;;9.70;4.57;;;;;;;-1.91;49.72;100083.16;5074309;28;20107;-59
2022/02/16 01:51:51;;;;;;;14.52;6.00;;;;;;;-2.02;49.55;100072.06;5073697;28;20103;-61
2022/02/16 01:54:18;;;;;;;11.52;5.70;;;;;;;-1.89;49.88;100076.09;5073839;28;20100;-58
2022/02/16 01:56:48;;;;;;;12.27;5.82;;;;;;;-1.84;50.00;100080.38;5074370;28;20081;-56
2022/02/16 01:59:18;;;;;;;11.18;5.82;;;;;;;-1.91;50.21;100072.66;5074072;28;20103;-58
2022/02/16 02:01:44;;;;;;;14.07;5.60;;;;;;;-1.88;49.75;100079.56;5073711;28;20426;-60
2022/02/16 02:04:10;;;;;;;11.43;5.10;;;;;;;-2.15;50.31;100031.28;5074152;28;20107;-56
2022/02/16 02:06:36;;;;;;;12.80;5.25;;;;;;;-1.84;49.44;100085.63;5073848;28;20107;-58
2022/02/16 02:09:02;;;;;;;11.48;5.28;;;;;;;-1.97;50.13;100059.69;5070121;28;20063;-57
2022/02/16 02:11:27;;;;;;;13.35;6.00;;;;;;;-1.92;49.94;100077.94;5073389;28;20070;-57
2022/02/16 02:13:57;;;;;;;12.13;5.25;;;;;;;-1.88;49.83;100075.22;5073892;28;20036;-55
2022/02/16 02:16:22;;;;;;;10.48;5.43;;;;;;;-1.93;50.29;100071.84;5073418;28;20029;-55
2022/02/16 02:18:48;;;;;;;11.05;5.18;;;;;;;-1.92;50.11;100062.19;5033158;28;20040;-59
2022/02/16 02:21:13;;;;;;;12.85;5.80;;;;;;;-2.04;49.93;100053.75;5033878;28;20071;-56
2022/02/16 02:23:39;;;;;;;13.30;5.80;;;;;;;-1.97;50.51;100067.53;5033839;28;20068;-58
2022/02/16 02:26:04;;;;;;;14.98;5.82;;;;;;;-2.02;49.90;100061.56;5033305;28;20575;-58
2022/02/16 02:28:30;;;;;;;11.70;5.53;;;;;;;-2.03;50.22;100067.72;5031796;28;20041;-60
2022/02/16 02:30:55;;;;;;;13.10;6.00;;;;;;;-2.05;50.59;100057.28;5033417;28;20383;-58
2022/02/16 02:33:21;;;;;;;13.07;6.20;;;;;;;-2.05;50.76;100064.25;5033471;28;20117;-60
2022/02/16 02:35:47;;;;;;;11.80;5.38;;;;;;;-2.07;50.90;100074.78;5033204;28;20044;-60
2022/02/16 02:38:12;;;;;;;13.98;5.82;;;;;;;-2.35;50.67;100027.41;5033001;28;20109;-59
2022/02/16 02:40:38;;;;;;;17.05;6.45;;;;;;;-2.16;50.64;100056.66;5033196;28;20033;-59
2022/02/16 02:43:03;;;;;;;10.88;5.70;;;;;;;-2.11;50.57;100067.03;5033415;28;20037;-57
2022/02/16 02:45:29;;;;;;;14.02;5.68;;;;;;;-2.19;51.06;100044.47;5032742;28;20117;-53
2022/02/16 02:47:55;;;;;;;13.73;5.68;;;;;;;-2.22;51.25;100052.41;5032365;28;20352;-60
2022/02/16 02:50:20;;;;;;;12.80;6.00;;;;;;;-2.20;51.19;100058.47;5015258;28;20017;-59
2022/02/16 02:52:46;;;;;;;13.18;6.03;;;;;;;-2.18;51.05;100064.53;5033420;28;20052;-59
2022/02/16 02:55:13;;;;;;;12.10;5.93;;;;;;;-2.22;51.48;100064.69;5033782;28;20144;-59
2022/02/16 02:57:39;;;;;;;15.45;5.35;;;;;;;-2.69;51.51;99975.75;5032705;28;20026;-61
2022/02/16 03:00:07;;;;;;;13.32;5.93;;;;;;;-2.22;51.61;100057.66;5032908;28;20505;-59
2022/02/16 03:02:32;;;;;;;10.88;5.47;;;;;;;-2.51;51.11;99998.06;5033315;28;20025;-62
2022/02/16 03:04:58;;;;;;;12.70;6.10;;;;;;;-2.24;51.73;100041.09;5032931;28;20028;-58
2022/02/16 03:07:23;;;;;;;14.15;6.05;;;;;;;-2.20;51.17;100032.25;5032636;28;20151;-59
2022/02/16 03:09:50;;;;;;;15.90;6.00;;;;;;;-2.27;51.63;100025.44;5032627;28;20417;-59
2022/02/16 03:12:15;;;;;;;12.45;6.10;;;;;;;-2.21;51.44;100032.31;5032834;28;20099;-57
2022/02/16 03:14:41;;;;;;;13.73;5.72;;;;;;;-2.30;51.48;100028.13;5032283;28;20022;-56
2022/02/16 03:17:07;;;;;;;10.82;5.75;;;;;;;-2.46;51.35;100004.91;5044544;28;20053;-59
2022/02/16 03:19:32;;;;;;;14.80;6.03;;;;;;;-2.40;51.87;100022.25;5072171;28;20226;-56
2022/02/16 03:21:58;;;;;;;13.75;6.60;;;;;;;-2.37;51.84;100019.53;5071884;28;20085;-57
2022/02/16 03:24:23;;;;;;;14.25;6.05;;;;;;;-2.39;52.09;100028.38;5072150;28;20036;-58
2022/02/16 03:26:49;;;;;;;11.98;5.43;;;;;;;-2.33;51.52;100039.56;5071846;28;20094;-59
2022/02/16 03:29:14;;;;;;;14.98;5.65;;;;;;;-2.33;51.93;100049.19;5071914;28;20101;-56
2022/02/16 03:31:42;;;;;;;17.33;6.43;;;;;;;-2.60;51.64;99989.50;5071941;28;20028;-61
2022/02/16 03:34:08;;;;;;;16.15;6.07;;;;;;;-2.59;52.03;99995.63;5071855;28;20028;-56
2022/02/16 03:36:33;;;;;;;11.07;5.95;;;;;;;-2.35;52.19;100032.63;5054171;28;20035;-60
2022/02/16 03:38:59;;;;;;;14.23;6.32;;;;;;;-2.35;52.00;100036.09;5072092;28;20020;-59
2022/02/16 03:41:24;;;;;;;13.65;6.15;;;;;;;-2.37;52.05;100034.44;5071657;28;20587;-60
2022/02/16 03:43:50;;;;;;;11.93;5.70;;;;;;;-2.62;52.51;99982.59;5071927;28;20096;-59
2022/02/16 03:46:15;;;;;;;19.08;6.35;;;;;;;-2.40;52.14;100037.97;5071924;28;20389;-56
2022/02/16 03:48:41;;;;;;;14.65;6.07;;;;;;;-2.42;52.61;100024.06;5071594;28;20028;-56
2022/02/16 03:51:06;;;;;;;15.48;6.10;;;;;;;-2.40;52.45;100032.75;5053939;28;20082;-56
2022/02/16 03:53:32;;;;;;;14.27;7.10;;;;;;;-2.40;52.23;100024.03;5053572;28;20029;-58
2022/02/16 03:55:58;;;;;;;14.35;6.28;;;;;;;-2.42;52.86;100017.94;5070785;28;20028;-61
2022/02/16 03:58:23;;;;;;;15.80;6.47;;;;;;;-2.61;52.52;99986.94;5071381;28;20031;-59
2022/02/16 04:00:49;;;;;;;17.48;5.95;;;;;;;-2.43;53.28;100016.22;5072219;28;20035;-55
2022/02/16 04:03:14;;;;;;;15.50;6.72;;;;;;;-2.47;52.95;100008.41;5071038;28;20103;-58
2022/02/16 04:05:41;;;;;;;14.38;6.72;;;;;;;-2.45;53.37;100014.47;5071248;28;20028;-55
2022/02/16 04:08:07;;;;;;;11.75;6.35;;;;;;;-2.43;52.98;100016.22;5071806;28;20366;-59
2022/02/16 04:10:33;;;;;;;13.50;6.55;;;;;;;-2.45;52.65;100014.47;5071679;28;20032;-61
2022/02/16 04:12:59;;;;;;;14.02;6.45;;;;;;;-2.40;52.90;100018.78;5071138;28;20036;-54
2022/02/16 04:15:24;;;;;;;17.77;7.18;;;;;;;-2.46;53.50;100011.91;5071105;28;20020;-53
2022/02/16 04:17:50;;;;;;;16.13;6.60;;;;;;;-2.80;53.87;99963.78;5072008;28;20091;-61
2022/02/16 04:20:15;;;;;;;15.98;7.40;;;;;;;-2.49;53.42;100007.59;5071599;28;20062;-61
2022/02/16 04:22:46;;;;;;;16.02;7.57;;;;;;;-2.54;53.71;99996.38;5071268;28;20373;-53
2022/02/16 04:25:13;;;;;;;14.23;7.13;;;;;;;-2.70;53.48;99969.66;5071141;28;20066;-55
2022/02/16 04:27:39;;;;;;;14.93;6.88;;;;;;;-2.50;53.33;100013.75;5071696;28;20020;-56
2022/02/16 04:30:06;;;;;;;17.88;7.00;;;;;;;-2.50;53.68;99992.75;5071450;28;20148;-60
2022/02/16 04:32:32;;;;;;;18.08;7.75;;;;;;;-2.61;53.75;100000.03;5070944;28;20193;-59
2022/02/16 04:34:58;;;;;;;13.43;5.90;;;;;;;-2.53;53.45;100013.81;5070856;28;20485;-62
2022/02/16 04:37:23;;;;;;;16.20;6.65;;;;;;;-2.58;53.98;99997.34;5071648;28;20024;-56
2022/02/16 04:39:49;;;;;;;15.50;6.72;;;;;;;-2.56;53.58;100008.66;5071420;28;20028;-56
2022/02/16 04:42:15;;;;;;;15.80;6.80;;;;;;;-2.58;53.94;100010.44;5052834;28;20033;-56
2022/02/16 04:44:40;;;;;;;14.77;6.97;;;;;;;-2.53;54.13;100008.56;5070620;28;20074;-57
2022/02/16 04:47:06;;;;;;;15.98;6.43;;;;;;;-2.48;53.79;99998.84;5071476;28;20020;-59
2022/02/16 04:49:31;;;;;;;16.35;7.22;;;;;;;-2.45;53.92;100011.03;5071320;28;20029;-53
2022/02/16 04:51:57;;;;;;;20.10;8.15;;;;;;;-2.66;53.76;99971.31;5070615;28;20031;-60
2022/02/16 04:54:23;;;;;;;18.45;7.15;;;;;;;-2.40;53.58;100016.16;5070843;28;20032;-60
2022/02/16 04:56:49;;;;;;;13.13;7.22;;;;;;;-2.41;54.13;100012.66;5071354;28;20056;-59
2022/02/16 04:59:15;;;;;;;20.02;7.22;;;;;;;-2.41;54.10;100012.66;5071082;28;20070;-60
2022/02/16 05:01:42;;;;;;;21.60;7.40;;;;;;;-2.37;53.97;100014.31;5070436;28;20372;-57
2022/02/16 05:04:08;;;;;;;16.65;7.65;;;;;;;-2.32;54.36;100012.44;5070677;28;20036;-60
2022/02/16 05:06:34;;;;;;;18.58;7.50;;;;;;;-2.29;53.81;100003.63;5071162;28;20016;-59
2022/02/16 05:09:00;;;;;;;14.77;7.43;;;;;;;-2.25;54.23;100007.91;5074366;28;20036;-57
2022/02/16 05:11:26;;;;;;;17.05;7.65;;;;;;;-2.20;53.70;100013.88;5074509;28;20069;-59
2022/02/16 05:13:52;;;;;;;17.92;7.25;;;;;;;-2.13;53.67;100026.88;5074273;28;20032;-58
2022/02/16 05:16:17;;;;;;;16.50;7.97;;;;;;;-2.08;53.35;100030.22;5074227;28;20364;-60
2022/02/16 05:18:43;;;;;;;16.88;7.50;;;;;;;-2.08;53.20;100007.47;5074086;28;20086;-56
2022/02/16 05:21:08;;;;;;;15.75;7.45;;;;;;;-1.97;53.19;100016.84;5074221;28;20033;-60
2022/02/16 05:23:34;;;;;;;15.10;7.45;;;;;;;-1.91;53.75;100028.06;5074051;28;20373;-56
2022/02/16 05:25:59;;;;;;;16.13;7.50;;;;;;;-1.88;53.59;100020.09;5056847;28;20454;-53
2022/02/16 05:28:25;;;;;;;16.42;7.63;;;;;;;-2.00;53.50;99980.19;5074082;28;20077;-57
2022/02/16 05:30:50;;;;;;;16.08;6.93;;;;;;;-1.64;52.86;100028.22;5074078;28;20016;-54
2022/02/16 05:33:16;;;;;;;19.02;8.57;;;;;;;-1.84;53.00;99985.88;5074394;28;20028;-56
2022/02/16 05:35:41;;;;;;;18.60;8.20;;;;;;;-1.71;52.48;99984.63;5074102;28;20021;-58
2022/02/16 05:38:07;;;;;;;18.38;8.18;;;;;;;-1.34;52.25;100028.28;5073695;28;20177;-59
2022/02/16 05:40:33;;;;;;;17.38;7.70;;;;;;;-0.40;50.60;100033.41;5073897;28;20024;-61
2022/02/16 05:42:59;;;;;;;18.73;8.35;;;;;;;1.92;45.71;100033.78;5073730;28;20067;-61
2022/02/16 05:45:25;;;;;;;16.63;7.53;;;;;;;4.09;39.93;99984.16;5073796;28;20055;-59
2022/02/16 05:47:51;;;;;;;19.38;8.15;;;;;;;6.09;36.28;99999.00;5074022;28;20410;-56
2022/02/16 05:50:17;;;;;;;22.55;8.32;;;;;;;7.79;33.66;100016.00;5073317;28;20115;-59
2022/02/16 05:52:43;;;;;;;16.95;7.55;;;;;;;9.12;31.16;100029.25;5073116;28;20036;-57
2022/02/16 05:55:08;;;;;;;15.18;8.20;;;;;;;10.22;29.22;100015.88;5074104;28;20120;-61
2022/02/16 05:57:35;;;;;;;16.60;7.97;;;;;;;11.11;28.03;100022.50;5073566;28;20103;-60
2022/02/16 06:00:01;;;;;;;19.77;8.40;;;;;;;11.74;26.89;100009.34;5055325;28;20421;-60
2022/02/16 06:02:26;;;;;;;14.27;7.95;;;;;;;12.44;25.95;100016.13;5073627;28;20103;-59
2022/02/16 06:04:52;;;;;;;14.82;8.63;;;;;;;13.05;24.92;100019.81;5074110;28;20032;-59
2022/02/16 06:07:17;;;;;;;15.98;7.70;;;;;;;13.71;24.10;100018.50;5073297;28;20104;-61
2022/02/16 06:09:43;;;;;;;16.52;8.35;;;;;;;14.26;23.16;99992.00;5073314;28;20025;-56
2022/02/16 06:12:09;;;;;;;15.25;8.23;;;;;;;14.61;22.53;99974.34;5073479;28;20395;-64
2022/02/16 06:14:34;;;;;;;17.83;9.27;;;;;;;15.11;21.88;99991.19;5073869;28;20016;-60
2022/02/16 06:17:00;;;;;;;16.98;8.73;;;;;;;15.39;21.41;99985.78;5072975;28;20089;-60
2022/02/16 06:19:25;;;;;;;16.05;9.00;;;;;;;15.93;21.07;99996.66;5072308;28;20078;-61
2022/02/16 06:21:51;;;;;;;16.50;9.60;;;;;;;16.31;20.09;99973.03;5073202;28;20099;-60
2022/02/16 06:24:19;;;;;;;20.60;9.52;;;;;;;16.75;19.58;100007.25;5073511;28;20063;-62
2022/02/16 06:26:46;;;;;;;14.70;9.45;;;;;;;17.03;19.05;99998.13;5073256;28;20111;-60
2022/02/16 06:29:12;;;;;;;20.15;10.13;;;;;;;17.51;18.66;99990.34;5054632;28;20029;-60
2022/02/16 06:31:37;;;;;;;17.80;9.60;;;;;;;18.10;17.99;99989.47;5073545;28;20024;-61
2022/02/16 06:34:03;;;;;;;20.85;10.68;;;;;;;18.61;17.55;99986.53;5073427;28;20032;-59
2022/02/16 06:36:28;;;;;;;18.35;10.50;;;;;;;18.92;17.26;99980.31;5073364;28;20032;-60
2022/02/16 06:38:54;;;;;;;17.52;9.82;;;;;;;19.18;16.52;99978.41;5072712;28;20029;-60
2022/02/16 06:41:21;;;;;;;17.73;10.43;;;;;;;19.44;16.49;99969.09;5073254;28;20086;-60
2022/02/16 06:43:47;;;;;;;18.80;10.88;;;;;;;19.57;16.20;99969.38;5073265;28;20080;-60
2022/02/16 06:46:13;;;;;;;15.48;10.30;;;;;;;19.80;16.13;99985.69;5073001;28;20343;-60
2022/02/16 06:48:39;;;;;;;17.67;10.82;;;;;;;19.96;15.85;99988.47;5072324;28;20461;-61
2022/02/16 06:51:04;;;;;;;17.13;10.35;;;;;;;20.41;15.75;99984.03;5072900;28;20032;-59
2022/02/16 06:53:30;;;;;;;17.83;10.15;;;;;;;20.18;15.81;99967.78;5073092;28;20111;-59
2022/02/16 06:55:55;;;;;;;17.08;10.88;;;;;;;19.75;16.14;99966.38;5073116;28;20036;-62
2022/02/16 06:58:21;;;;;;;15.80;10.60;;;;;;;20.29;15.67;99955.63;5072482;28;20043;-63
2022/02/16 07:00:47;;;;;;;16.35;10.07;;;;;;;20.66;15.21;99951.13;5072552;28;20170;-62
2022/02/16 07:03:14;;;;;;;18.23;11.73;;;;;;;21.64;14.46;99960.97;5072601;28;20111;-63
2022/02/16 07:05:40;;;;;;;18.33;11.32;;;;;;;22.29;13.96;99949.22;5071435;28;20104;-63
2022/02/16 07:08:06;;;;;;;17.58;10.98;;;;;;;22.53;13.39;99950.66;5072108;28;20466;-63
2022/02/16 07:10:32;;;;;;;19.77;11.95;;;;;;;22.64;13.16;99939.19;5054284;28;20103;-64
2022/02/16 07:12:58;;;;;;;18.20;11.40;;;;;;;22.78;12.97;99947.44;5072276;28;20459;-62
2022/02/16 07:15:24;;;;;;;16.42;10.98;;;;;;;22.60;13.24;99937.06;5072222;28;20024;-62
2022/02/16 07:17:49;;;;;;;16.17;12.07;;;;;;;22.88;13.19;99947.09;5071897;28;20094;-63
2022/02/16 07:20:16;;;;;;;15.57;10.60;;;;;;;23.16;12.98;99952.47;5071431;28;20028;-64
2022/02/16 07:22:44;;;;;;;25.38;11.95;;;;;;;23.34;13.14;99956.56;5072066;28;20091;-62
2022/02/16 07:25:11;;;;;;;14.90;11.38;;;;;;;23.11;12.73;99946.78;5071798;28;20031;-66
2022/02/16 07:27:38;;;;;;;17.85;11.07;;;;;;;22.88;13.09;99944.34;5072090;28;20468;-63
2022/02/16 07:30:06;;;;;;;14.52;11.35;;;;;;;22.93;13.33;99948.19;5071339;28;20107;-63
2022/02/16 07:32:31;;;;;;;19.13;11.30;;;;;;;22.51;13.42;99942.69;5071694;28;20107;-62
2022/02/16 07:34:57;;;;;;;17.92;11.43;;;;;;;22.26;13.45;99927.78;5072148;28;20024;-63
2022/02/16 07:37:22;;;;;;;15.30;11.15;;;;;;;22.12;13.44;99929.59;5071457;28;20025;-61
2022/02/16 07:39:48;;;;;;;19.35;11.40;;;;;;;21.85;13.60;99932.06;5071326;28;20403;-62
2022/02/16 07:42:13;;;;;;;18.50;11.65;;;;;;;21.72;14.05;99930.06;5071480;28;20031;-61
2022/02/16 07:44:39;;;;;;;16.55;11.35;;;;;;;21.41;13.85;99932.03;5071612;28;20028;-62
2022/02/16 07:47:09;;;;;;;19.45;11.77;;;;;;;20.95;14.74;99935.84;5071229;28;20028;-63
2022/02/16 07:49:37;;;;;;;17.30;11.88;;;;;;;20.29;15.15;99928.41;5071531;28;20092;-64
2022/02/16 07:52:04;;;;;;;21.50;11.65;;;;;;;19.71;15.65;99909.84;5053866;28;20031;-63
2022/02/16 07:54:30;;;;;;;17.90;11.68;;;;;;;19.25;15.72;99916.94;5071467;28;20036;-64
2022/02/16 07:56:56;;;;;;;16.23;11.27;;;;;;;17.93;17.03;99934.38;5071114;28;20107;-62
2022/02/16 07:59:21;;;;;;;21.90;11.80;;;;;;;16.34;18.59;99934.00;5071375;28;20074;-62
2022/02/16 08:01:47;;;;;;;22.67;12.07;;;;;;;14.72;20.43;99927.53;5071428;28;20089;-62
2022/02/16 08:04:18;;;;;;;23.27;12.32;;;;;;;13.16;22.30;99936.41;5070605;28;20028;-62
2022/02/16 08:06:45;;;;;;;20.17;12.55;;;;;;;11.69;24.52;99928.38;5053196;28;20023;-62
2022/02/16 08:09:12;;;;;;;24.63;12.52;;;;;;;10.20;26.24;99884.91;5071770;28;20370;-64
2022/02/16 08:11:38;;;;;;;18.60;10.60;;;;;;;9.48;27.37;99931.38;5071262;28;20020;-62
2022/02/16 08:14:04;;;;;;;21.25;10.88;;;;;;;8.44;29.09;99894.25;5070965;28;20028;-63
2022/02/16 08:16:31;;;;;;;21.70;11.88;;;;;;;7.94;30.63;99925.28;5071435;28;20024;-62
2022/02/16 08:18:56;;;;;;;19.85;11.05;;;;;;;7.50;31.46;99924.66;5071569;28;20061;-63
2022/02/16 08:21:22;;;;;;;23.27;11.88;;;;;;;7.16;32.28;99923.25;5071175;28;20033;-62
2022/02/16 08:23:48;;;;;;;23.98;11.70;;;;;;;6.78;32.93;99912.41;5070881;28;20484;-63
2022/02/16 08:26:13;;;;;;;21.63;11.55;;;;;;;6.60;33.09;99923.25;5071197;28;20048;-63
2022/02/16 08:28:39;;;;;;;20.85;11.73;;;;;;;6.42;33.86;99925.25;5071214;28;20032;-63
2022/02/16 08:31:05;;;;;;;29.10;11.98;;;;;;;6.23;34.14;99917.53;5071585;28;20396;-63
2022/02/16 08:33:30;;;;;;;23.10;12.15;;;;;;;6.11;34.87;99917.34;5070821;28;20461;-64
2022/02/16 08:35:56;;;;;;;24.13;12.60;;;;;;;5.94;35.67;99928.97;5071014;28;20028;-63
2022/02/16 08:38:21;;;;;;;24.38;11.90;;;;;;;5.67;35.82;99905.75;5071060;28;20024;-62
2022/02/16 08:40:47;;;;;;;25.65;12.82;;;;;;;5.65;36.09;99912.91;5070943;28;20074;-62
2022/02/16 08:43:13;;;;;;;27.85;12.05;;;;;;;5.48;36.54;99910.41;5055329;28;20021;-62
2022/02/16 08:45:39;;;;;;;25.13;11.43;;;;;;;5.38;36.97;99907.44;5074754;28;20055;-64
2022/02/16 08:48:05;;;;;;;25.73;11.88;;;;;;;5.28;37.77;99915.06;5057779;28;20020;-63
2022/02/16 08:50:31;;;;;;;23.80;12.98;;;;;;;5.19;37.92;99911.13;5075389;28;20025;-63
2022/02/16 08:52:57;;;;;;;21.38;12.10;;;;;;;5.16;38.43;99906.84;5074706;28;20038;-64
2022/02/16 08:55:22;;;;;;;22.90;11.05;;;;;;;5.22;37.81;99918.09;5074518;28;20024;-63
2022/02/16 08:57:48;;;;;;;24.90;11.77;;;;;;;5.16;37.95;99906.00;5074913;28;20024;-61
2022/02/16 09:00:15;;;;;;;25.52;11.85;;;;;;;5.26;37.90;99912.50;5074674;28;20028;-60
2022/02/16 09:02:41;;;;;;;24.98;13.27;;;;;;;5.27;38.33;99911.53;5074358;28;20025;-62
2022/02/16 09:05:07;;;;;;;24.30;12.40;;;;;;;5.31;38.26;99909.59;5075054;28;20099;-60
2022/02/16 09:07:33;;;;;;;24.92;12.15;;;;;;;5.38;38.64;99910.09;5074637;28;20040;-60
2022/02/16 09:10:04;;;;;;;25.83;11.70;;;;;;;5.32;38.46;99909.50;5074339;28;20111;-60
2022/02/16 09:12:30;;;;;;;24.58;12.10;;;;;;;5.51;38.28;99910.25;5074219;28;20090;-61
2022/02/16 09:14:57;;;;;;;26.33;12.05;;;;;;;5.76;37.52;99904.31;5074355;28;20028;-60
2022/02/16 09:17:26;;;;;;;23.70;11.80;;;;;;;5.80;37.29;99858.06;5073907;28;20461;-57
2022/02/16 09:19:52;;;;;;;27.48;12.43;;;;;;;6.18;37.07;99894.75;5073769;28;20029;-59
2022/02/16 09:22:19;;;;;;;21.73;11.95;;;;;;;6.15;37.37;99904.72;5074488;28;20375;-57
2022/02/16 09:24:45;;;;;;;26.58;11.93;;;;;;;6.05;37.41;99893.81;5074152;28;20021;-58
2022/02/16 09:27:13;;;;;;;22.33;12.55;;;;;;;6.05;38.29;99896.47;5073947;28;20027;-60
2022/02/16 09:29:39;;;;;;;26.17;11.70;;;;;;;6.08;37.55;99890.09;5074140;28;20504;-59
2022/02/16 09:32:05;;;;;;;22.92;11.77;;;;;;;5.74;37.96;99869.03;5074243;28;20031;-58
2022/02/16 09:34:31;;;;;;;26.42;12.85;;;;;;;5.83;38.06;99883.56;5073818;28;20024;-59
2022/02/16 09:36:56;;;;;;;24.27;12.82;;;;;;;5.73;38.61;99893.88;5074401;28;20102;-60
2022/02/16 09:39:22;;;;;;;24.50;12.63;;;;;;;5.65;38.89;99891.66;5056253;28;20111;-61
2022/02/16 09:41:47;;;;;;;27.05;12.35;;;;;;;5.50;39.33;99887.28;5073737;28;20107;-59
2022/02/16 09:44:15;;;;;;;29.45;13.20;;;;;;;5.42;39.41;99890.38;5073859;28;20023;-59
2022/02/16 09:46:41;;;;;;;27.20;12.75;;;;;;;5.28;39.44;99892.03;5074273;28;20103;-58
2022/02/16 09:49:07;;;;;;;24.00;12.80;;;;;;;5.10;40.06;99875.34;5074034;28;20170;-59
2022/02/16 09:51:32;;;;;;;26.27;13.70;;;;;;;4.96;40.19;99862.88;5073398;28;20107;-59
2022/02/16 09:53:58;;;;;;;30.42;13.82;;;;;;;4.86;40.53;99856.41;5072371;28;20029;-56
2022/02/16 09:56:24;;;;;;;29.20;12.95;;;;;;;4.77;40.81;99849.81;5073995;28;20020;-58
2022/02/16 09:58:50;;;;;;;28.95;12.48;;;;;;;4.74;41.10;99852.63;5073066;28;20036;-59
2022/02/16 10:01:16;;;;;;;24.85;13.45;;;;;;;4.86;41.53;99859.03;5073311;28;20028;-60
2022/02/16 10:04:02;;;;;;;29.13;13.77;;;;;;;5.01;40.17;99849.34;5073783;28;20028;-59
2022/02/16 10:06:39;;;;;;;27.73;13.82;;;;;;;4.99;40.44;99838.81;5055748;28;20035;-61
2022/02/16 10:09:06;;;;;;;26.90;14.23;;;;;;;4.80;41.11;99824.88;5073060;28;20469;-61
2022/02/16 10:11:32;;;;;;;25.73;13.20;;;;;;;4.81;41.22;99843.38;5073300;28;20029;-58
2022/02/16 10:14:19;;;;;;;27.10;13.73;;;;;;;4.87;41.45;99839.53;5073804;28;20031;-61
2022/02/16 10:16:46;;;;;;;27.52;14.10;;;;;;;4.85;41.96;99841.41;5073150;28;20049;-62
2022/02/16 10:19:12;;;;;;;27.02;14.70;;;;;;;4.67;42.16;99828.25;5054863;28;20024;-60
2022/02/16 10:21:38;;;;;;;25.55;13.57;;;;;;;4.71;41.99;99848.34;5073404;28;20047;-64
2022/02/16 10:24:04;;;;;;;25.88;12.38;;;;;;;4.78;41.79;99845.34;5073462;28;20027;-67
2022/02/16 10:26:53;;;;;;;29.58;13.77;;;;;;;4.91;40.97;99834.88;5059094;28;20029;-60
2022/02/16 10:29:21;;;;;;;24.25;13.75;;;;;;;4.91;41.56;99838.41;5052617;28;20091;-57
2022/02/16 10:31:47;;;;;;;23.45;13.40;;;;;;;4.94;41.23;99832.94;5052961;28;20040;-62
2022/02/16 10:34:13;;;;;;;28.60;14.52;;;;;;;5.03;41.15;99834.19;5053139;28;20029;-55
2022/02/16 10:36:38;;;;;;;25.08;14.35;;;;;;;5.15;40.91;99824.69;5053269;28;20448;-55
2022/02/16 10:39:11;;;;;;;31.48;14.23;;;;;;;5.25;41.08;99820.53;5052558;28;20032;-60
2022/02/16 10:41:41;;;;;;;23.48;13.38;;;;;;;5.25;41.00;99825.84;5052787;28;20028;-62
2022/02/16 10:44:20;;;;;;;28.77;14.30;;;;;;;5.20;40.90;99819.94;5053382;28;20120;-61
2022/02/16 10:47:03;;;;;;;27.35;14.50;;;;;;;5.07;41.24;99821.63;5052815;28;20103;-58
2022/02/16 10:49:31;;;;;;;26.17;14.90;;;;;;;4.89;41.78;99811.13;5052360;28;20474;-60
2022/02/16 10:52:13;;;;;;;26.58;14.23;;;;;;;4.93;41.73;99802.03;5052641;28;20037;-58
2022/02/16 10:54:41;;;;;;;28.75;14.77;;;;;;;4.91;42.45;99805.69;5052703;28;20051;-57
2022/02/16 10:57:07;;;;;;;29.23;15.18;;;;;;;4.91;41.99;99795.97;5052183;28;20031;-59
2022/02/16 10:59:33;;;;;;;28.75;14.95;;;;;;;4.93;42.49;99799.38;5057330;28;20028;-64
2022/02/16 11:02:06;;;;;;;28.23;15.82;;;;;;;5.03;42.17;99774.00;5051970;28;20021;-63
2022/02/16 11:04:35;;;;;;;32.60;16.42;;;;;;;5.15;41.95;99779.56;5054156;28;20035;-61
2022/02/16 11:07:01;;;;;;;26.73;15.43;;;;;;;5.30;41.19;99785.75;5027821;28;20021;-63
2022/02/16 11:09:32;;;;;;;30.92;16.02;;;;;;;5.27;41.66;99776.16;5066678;28;20069;-61
2022/02/16 11:11:58;;;;;;;30.70;15.75;;;;;;;5.26;41.99;99774.44;5072186;28;20061;-62
2022/02/16 11:14:28;;;;;;;33.05;17.05;;;;;;;5.17;41.96;99764.41;5071720;28;20024;-61
2022/02/16 11:16:58;;;;;;;33.50;16.92;;;;;;;5.15;42.21;99760.97;5071633;28;20071;-59